KZR952 UACC-UAAA
Flight info
| Callsign | KZR952 |
|---|---|
| Flight time | 1h 20m |
| Altitude | 37000 |
| Route | BANOS1A BANOS W333 ETEDA ETEDA1Q |
| Aircraft | A20N/M-SDE2E3FGHIRWXY/LB1 |
Departure
| Time | 2026-05-06 17:12 |
|---|---|
| Airport | Nursultan Nazarbayev International Airport (UACC) |
Arrival
| Time | 2026-05-06 18:32 |
|---|---|
| Airport | Almaty International Airport (UAAA) |
| Time | Latitude | Longitude | Altitude | Speed | Heading |
|---|---|---|---|---|---|
| 2026-05-06 16:56 | 51.02692 | 71.46278 | 1174 ft | 0 kts | 314° |
| 2026-05-06 17:03 | 51.02688 | 71.46285 | 1174 ft | 2 kts | 315° |
| 2026-05-06 17:03 | 51.02677 | 71.46303 | 1174 ft | 2 kts | 314° |
| 2026-05-06 17:04 | 51.02667 | 71.46320 | 1174 ft | 2 kts | 314° |
| 2026-05-06 17:04 | 51.02656 | 71.46336 | 1174 ft | 2 kts | 315° |
| 2026-05-06 17:04 | 51.02645 | 71.46353 | 1174 ft | 2 kts | 314° |
| 2026-05-06 17:04 | 51.02638 | 71.46364 | 1174 ft | 2 kts | 313° |
| 2026-05-06 17:05 | 51.02631 | 71.46384 | 1174 ft | 2 kts | 283° |
| 2026-05-06 17:05 | 51.02630 | 71.46405 | 1174 ft | 0 kts | 262° |
| 2026-05-06 17:05 | 51.02631 | 71.46416 | 1174 ft | 1 kts | 258° |
| 2026-05-06 17:07 | 51.02629 | 71.46396 | 1174 ft | 3 kts | 259° |
| 2026-05-06 17:07 | 51.02623 | 71.46341 | 1174 ft | 7 kts | 259° |
| 2026-05-06 17:08 | 51.02593 | 71.46256 | 1174 ft | 10 kts | 225° |
| 2026-05-06 17:08 | 51.02533 | 71.46162 | 1174 ft | 12 kts | 224° |
| 2026-05-06 17:08 | 51.02464 | 71.46088 | 1174 ft | 12 kts | 178° |
| 2026-05-06 17:08 | 51.02396 | 71.46171 | 1174 ft | 13 kts | 134° |
| 2026-05-06 17:09 | 51.02322 | 71.46246 | 1174 ft | 10 kts | 187° |
| 2026-05-06 17:09 | 51.02262 | 71.46166 | 1174 ft | 12 kts | 225° |
| 2026-05-06 17:09 | 51.02200 | 71.46066 | 1174 ft | 13 kts | 223° |
| 2026-05-06 17:09 | 51.02132 | 71.45964 | 1174 ft | 13 kts | 224° |
| 2026-05-06 17:10 | 51.02061 | 71.45853 | 1174 ft | 14 kts | 224° |
| 2026-05-06 17:10 | 51.01986 | 71.45737 | 1174 ft | 15 kts | 224° |
| 2026-05-06 17:10 | 51.01909 | 71.45615 | 1174 ft | 15 kts | 226° |
| 2026-05-06 17:10 | 51.01826 | 71.45500 | 1174 ft | 15 kts | 197° |
| 2026-05-06 17:11 | 51.01737 | 71.45589 | 1174 ft | 16 kts | 133° |
| 2026-05-06 17:11 | 51.01694 | 71.45735 | 1174 ft | 15 kts | 57° |
| 2026-05-06 17:11 | 51.01895 | 71.46056 | 1174 ft | 78 kts | 44° |
| 2026-05-06 17:11 | 51.02452 | 71.46918 | 1175 ft | 142 kts | 44° |
| 2026-05-06 17:12 | 51.03208 | 71.48093 | 1598 ft | 156 kts | 46° |
| 2026-05-06 17:12 | 51.03922 | 71.49399 | 2222 ft | 160 kts | 65° |
| 2026-05-06 17:12 | 51.03934 | 71.51086 | 2902 ft | 161 kts | 109° |
| 2026-05-06 17:12 | 51.03408 | 71.52711 | 3395 ft | 174 kts | 117° |
| 2026-05-06 17:13 | 51.02789 | 71.54488 | 3848 ft | 191 kts | 116° |
| 2026-05-06 17:13 | 51.02167 | 71.56448 | 4289 ft | 211 kts | 114° |
| 2026-05-06 17:13 | 51.01524 | 71.58658 | 4792 ft | 230 kts | 113° |
| 2026-05-06 17:13 | 51.00875 | 71.61008 | 5564 ft | 236 kts | 113° |
| 2026-05-06 17:14 | 51.00234 | 71.63374 | 6367 ft | 241 kts | 114° |
| 2026-05-06 17:14 | 50.99571 | 71.65838 | 7206 ft | 245 kts | 115° |
| 2026-05-06 17:14 | 50.98911 | 71.68294 | 8028 ft | 248 kts | 116° |
| 2026-05-06 17:14 | 50.98000 | 71.70588 | 8831 ft | 248 kts | 135° |
| 2026-05-06 17:15 | 50.96710 | 71.72403 | 9435 ft | 258 kts | 146° |
| 2026-05-06 17:15 | 50.95229 | 71.74163 | 9909 ft | 276 kts | 147° |
| 2026-05-06 17:15 | 50.93626 | 71.76035 | 10371 ft | 294 kts | 146° |
| 2026-05-06 17:15 | 50.91942 | 71.78021 | 10835 ft | 313 kts | 146° |
| 2026-05-06 17:16 | 50.90171 | 71.80134 | 11319 ft | 328 kts | 146° |
| 2026-05-06 17:16 | 50.88334 | 71.82341 | 12077 ft | 334 kts | 145° |
| 2026-05-06 17:16 | 50.86505 | 71.84544 | 12849 ft | 338 kts | 145° |
| 2026-05-06 17:16 | 50.84616 | 71.86816 | 13507 ft | 344 kts | 145° |
| 2026-05-06 17:17 | 50.82726 | 71.89085 | 13892 ft | 346 kts | 145° |
| 2026-05-06 17:17 | 50.80783 | 71.91415 | 14002 ft | 347 kts | 145° |
| 2026-05-06 17:17 | 50.78877 | 71.93703 | 14019 ft | 346 kts | 145° |
| 2026-05-06 17:17 | 50.76936 | 71.96029 | 14164 ft | 351 kts | 145° |
| 2026-05-06 17:18 | 50.74997 | 71.98351 | 14828 ft | 356 kts | 145° |
| 2026-05-06 17:18 | 50.73040 | 72.00694 | 15691 ft | 356 kts | 145° |
| 2026-05-06 17:18 | 50.71055 | 72.03068 | 16437 ft | 359 kts | 145° |
| 2026-05-06 17:18 | 50.69080 | 72.05424 | 17110 ft | 364 kts | 145° |
| 2026-05-06 17:19 | 50.67044 | 72.07850 | 17769 ft | 368 kts | 145° |
| 2026-05-06 17:19 | 50.64989 | 72.10295 | 18438 ft | 372 kts | 146° |
| 2026-05-06 17:19 | 50.62921 | 72.12758 | 19084 ft | 376 kts | 146° |
| 2026-05-06 17:19 | 50.60848 | 72.15220 | 19717 ft | 380 kts | 146° |
| 2026-05-06 17:20 | 50.58741 | 72.17718 | 20341 ft | 384 kts | 146° |
| 2026-05-06 17:20 | 50.56611 | 72.20243 | 20959 ft | 388 kts | 146° |
| 2026-05-06 17:20 | 50.54459 | 72.22788 | 21557 ft | 392 kts | 146° |
| 2026-05-06 17:20 | 50.52272 | 72.25374 | 22152 ft | 396 kts | 146° |
| 2026-05-06 17:21 | 50.50044 | 72.28003 | 22731 ft | 400 kts | 146° |
| 2026-05-06 17:21 | 50.47837 | 72.30602 | 23289 ft | 404 kts | 146° |
| 2026-05-06 17:21 | 50.45587 | 72.33252 | 23849 ft | 409 kts | 146° |
| 2026-05-06 17:21 | 50.43302 | 72.35939 | 24411 ft | 413 kts | 146° |
| 2026-05-06 17:22 | 50.41003 | 72.38638 | 24938 ft | 417 kts | 146° |
| 2026-05-06 17:22 | 50.38675 | 72.41373 | 25425 ft | 423 kts | 146° |
| 2026-05-06 17:22 | 50.36317 | 72.44134 | 25929 ft | 427 kts | 146° |
| 2026-05-06 17:22 | 50.33935 | 72.46921 | 26414 ft | 431 kts | 147° |
| 2026-05-06 17:23 | 50.31524 | 72.49741 | 26921 ft | 434 kts | 147° |
| 2026-05-06 17:23 | 50.29086 | 72.52588 | 27374 ft | 439 kts | 146° |
| 2026-05-06 17:23 | 50.26631 | 72.55445 | 27802 ft | 443 kts | 146° |
| 2026-05-06 17:23 | 50.24163 | 72.58321 | 28210 ft | 447 kts | 147° |
| 2026-05-06 17:24 | 50.21666 | 72.61223 | 28624 ft | 451 kts | 147° |
| 2026-05-06 17:24 | 50.19197 | 72.64203 | 29015 ft | 456 kts | 143° |
| 2026-05-06 17:24 | 50.16777 | 72.67490 | 29396 ft | 461 kts | 141° |
| 2026-05-06 17:24 | 50.14425 | 72.70943 | 29750 ft | 465 kts | 140° |
| 2026-05-06 17:25 | 50.12071 | 72.74425 | 30123 ft | 467 kts | 140° |
| 2026-05-06 17:25 | 50.09861 | 72.77688 | 30435 ft | 470 kts | 140° |
| 2026-05-06 17:25 | 50.07465 | 72.81217 | 30819 ft | 471 kts | 140° |
| 2026-05-06 17:25 | 50.05107 | 72.84676 | 31258 ft | 471 kts | 140° |
| 2026-05-06 17:26 | 50.02713 | 72.88187 | 31712 ft | 470 kts | 140° |
| 2026-05-06 17:26 | 50.00322 | 72.91685 | 32123 ft | 470 kts | 140° |
| 2026-05-06 17:26 | 49.97945 | 72.95155 | 32505 ft | 471 kts | 140° |
| 2026-05-06 17:26 | 49.95587 | 72.98590 | 32890 ft | 471 kts | 140° |
| 2026-05-06 17:27 | 49.93202 | 73.02062 | 33289 ft | 470 kts | 140° |
| 2026-05-06 17:27 | 49.90824 | 73.05519 | 33691 ft | 470 kts | 140° |
| 2026-05-06 17:27 | 49.88406 | 73.09026 | 34097 ft | 468 kts | 141° |
| 2026-05-06 17:27 | 49.86010 | 73.12495 | 34472 ft | 467 kts | 140° |
| 2026-05-06 17:28 | 49.83672 | 73.15877 | 34751 ft | 467 kts | 140° |
| 2026-05-06 17:28 | 49.81445 | 73.19096 | 35049 ft | 466 kts | 140° |
| 2026-05-06 17:28 | 49.79092 | 73.22491 | 35375 ft | 464 kts | 140° |
| 2026-05-06 17:28 | 49.76720 | 73.25907 | 35661 ft | 463 kts | 140° |
| 2026-05-06 17:29 | 49.74401 | 73.29221 | 35892 ft | 463 kts | 141° |
| 2026-05-06 17:29 | 49.71894 | 73.32471 | 36108 ft | 462 kts | 146° |
| 2026-05-06 17:29 | 49.69263 | 73.35410 | 36348 ft | 460 kts | 150° |
| 2026-05-06 17:29 | 49.66566 | 73.37985 | 36634 ft | 458 kts | 154° |
| 2026-05-06 17:30 | 49.63714 | 73.40288 | 36882 ft | 456 kts | 159° |
| 2026-05-06 17:30 | 49.60833 | 73.42230 | 37075 ft | 455 kts | 162° |
| 2026-05-06 17:30 | 49.57904 | 73.43987 | 37090 ft | 455 kts | 163° |
| 2026-05-06 17:31 | 49.51940 | 73.47536 | 37102 ft | 455 kts | 163° |
| 2026-05-06 17:31 | 49.46051 | 73.51060 | 37122 ft | 455 kts | 162° |
| 2026-05-06 17:32 | 49.40145 | 73.54599 | 37130 ft | 455 kts | 162° |
| 2026-05-06 17:32 | 49.34251 | 73.58125 | 37139 ft | 454 kts | 162° |
| 2026-05-06 17:33 | 49.28337 | 73.61658 | 37145 ft | 455 kts | 162° |
| 2026-05-06 17:33 | 49.22434 | 73.65171 | 37151 ft | 454 kts | 163° |
| 2026-05-06 17:34 | 49.16527 | 73.68678 | 37157 ft | 454 kts | 163° |
| 2026-05-06 17:34 | 49.11021 | 73.71938 | 37161 ft | 454 kts | 163° |
| 2026-05-06 17:35 | 49.05091 | 73.75443 | 37164 ft | 454 kts | 163° |
| 2026-05-06 17:35 | 48.99198 | 73.78913 | 37164 ft | 454 kts | 163° |
| 2026-05-06 17:36 | 48.90345 | 73.84095 | 37167 ft | 455 kts | 163° |
| 2026-05-06 17:36 | 48.84379 | 73.87570 | 37161 ft | 455 kts | 163° |
| 2026-05-06 17:37 | 48.78639 | 73.90907 | 37161 ft | 455 kts | 163° |
| 2026-05-06 17:37 | 48.72579 | 73.94417 | 37159 ft | 456 kts | 163° |
| 2026-05-06 17:38 | 48.66642 | 73.97852 | 37164 ft | 457 kts | 163° |
| 2026-05-06 17:38 | 48.60724 | 74.01263 | 37160 ft | 457 kts | 163° |
| 2026-05-06 17:39 | 48.54763 | 74.04691 | 37158 ft | 458 kts | 162° |
| 2026-05-06 17:39 | 48.48761 | 74.08136 | 37164 ft | 459 kts | 162° |
| 2026-05-06 17:40 | 48.42839 | 74.11738 | 37162 ft | 460 kts | 160° |
| 2026-05-06 17:40 | 48.36927 | 74.15578 | 37162 ft | 460 kts | 160° |
| 2026-05-06 17:41 | 48.30994 | 74.19391 | 37157 ft | 460 kts | 160° |
| 2026-05-06 17:41 | 48.25087 | 74.23153 | 37162 ft | 460 kts | 160° |
| 2026-05-06 17:42 | 48.19119 | 74.26936 | 37152 ft | 460 kts | 160° |
| 2026-05-06 17:42 | 48.13184 | 74.30690 | 37148 ft | 462 kts | 160° |
| 2026-05-06 17:43 | 48.07223 | 74.34463 | 37143 ft | 461 kts | 160° |
| 2026-05-06 17:43 | 48.01335 | 74.38184 | 37139 ft | 462 kts | 160° |
| 2026-05-06 17:44 | 47.95404 | 74.41919 | 37131 ft | 462 kts | 160° |
| 2026-05-06 17:44 | 47.89451 | 74.45657 | 37128 ft | 463 kts | 160° |
| 2026-05-06 17:45 | 47.83485 | 74.49393 | 37131 ft | 462 kts | 159° |
| 2026-05-06 17:45 | 47.77630 | 74.53052 | 37133 ft | 462 kts | 160° |
| 2026-05-06 17:46 | 47.71657 | 74.56776 | 37129 ft | 463 kts | 159° |
| 2026-05-06 17:46 | 47.65728 | 74.60461 | 37123 ft | 463 kts | 159° |
| 2026-05-06 17:47 | 47.59795 | 74.64139 | 37121 ft | 463 kts | 159° |
| 2026-05-06 17:47 | 47.56825 | 74.65980 | 37120 ft | 464 kts | 160° |
| 2026-05-06 17:48 | 47.50979 | 74.69591 | 37120 ft | 464 kts | 160° |
| 2026-05-06 17:48 | 47.45519 | 74.72961 | 37118 ft | 464 kts | 160° |
| 2026-05-06 17:49 | 47.39546 | 74.76635 | 37116 ft | 464 kts | 160° |
| 2026-05-06 17:49 | 47.33565 | 74.80306 | 37105 ft | 465 kts | 160° |
| 2026-05-06 17:50 | 47.27622 | 74.83943 | 37094 ft | 465 kts | 160° |
| 2026-05-06 17:50 | 47.21622 | 74.87606 | 37091 ft | 466 kts | 160° |
| 2026-05-06 17:51 | 47.15649 | 74.91245 | 37083 ft | 466 kts | 160° |
| 2026-05-06 17:51 | 47.09668 | 74.94878 | 37081 ft | 466 kts | 160° |
| 2026-05-06 17:52 | 47.03683 | 74.98504 | 37083 ft | 467 kts | 159° |
| 2026-05-06 17:52 | 46.97669 | 75.02138 | 37079 ft | 466 kts | 160° |
| 2026-05-06 17:53 | 46.91671 | 75.05752 | 37078 ft | 468 kts | 159° |
| 2026-05-06 17:53 | 46.85676 | 75.09364 | 37069 ft | 468 kts | 159° |
| 2026-05-06 17:54 | 46.79790 | 75.12897 | 37067 ft | 467 kts | 159° |
| 2026-05-06 17:54 | 46.73882 | 75.16437 | 37066 ft | 468 kts | 159° |
| 2026-05-06 17:55 | 46.67828 | 75.20057 | 37067 ft | 469 kts | 159° |
| 2026-05-06 17:55 | 46.61834 | 75.23625 | 37063 ft | 469 kts | 159° |
| 2026-05-06 17:56 | 46.55767 | 75.27232 | 37065 ft | 469 kts | 159° |
| 2026-05-06 17:56 | 46.49690 | 75.30837 | 37062 ft | 470 kts | 158° |
| 2026-05-06 17:57 | 46.43597 | 75.34438 | 37064 ft | 470 kts | 158° |
| 2026-05-06 17:57 | 46.37582 | 75.37991 | 37066 ft | 470 kts | 158° |
| 2026-05-06 17:58 | 46.31490 | 75.41575 | 37068 ft | 470 kts | 158° |
| 2026-05-06 17:58 | 46.25405 | 75.45149 | 37059 ft | 471 kts | 158° |
| 2026-05-06 17:59 | 46.19333 | 75.48707 | 37064 ft | 471 kts | 158° |
| 2026-05-06 17:59 | 46.13268 | 75.52256 | 37067 ft | 470 kts | 157° |
| 2026-05-06 18:00 | 46.07173 | 75.55810 | 37064 ft | 471 kts | 158° |
| 2026-05-06 18:00 | 46.01078 | 75.59358 | 37059 ft | 470 kts | 157° |
| 2026-05-06 18:01 | 45.94990 | 75.62891 | 37069 ft | 471 kts | 158° |
| 2026-05-06 18:01 | 45.88923 | 75.66406 | 37061 ft | 471 kts | 158° |
| 2026-05-06 18:02 | 45.83035 | 75.69801 | 37060 ft | 470 kts | 158° |
| 2026-05-06 18:02 | 45.77104 | 75.73222 | 37062 ft | 469 kts | 158° |
| 2026-05-06 18:03 | 45.71011 | 75.76728 | 37066 ft | 469 kts | 158° |
| 2026-05-06 18:03 | 45.65106 | 75.80122 | 37070 ft | 468 kts | 158° |
| 2026-05-06 18:04 | 45.59052 | 75.83594 | 37062 ft | 467 kts | 158° |
| 2026-05-06 18:04 | 45.53138 | 75.86977 | 37058 ft | 466 kts | 158° |
| 2026-05-06 18:05 | 45.47110 | 75.90416 | 37062 ft | 466 kts | 158° |
| 2026-05-06 18:05 | 45.41073 | 75.93855 | 37073 ft | 466 kts | 158° |
| 2026-05-06 18:06 | 45.35102 | 75.97248 | 37068 ft | 465 kts | 158° |
| 2026-05-06 18:06 | 45.29058 | 76.00671 | 37068 ft | 466 kts | 158° |
| 2026-05-06 18:07 | 45.23048 | 76.04068 | 37062 ft | 465 kts | 158° |
| 2026-05-06 18:07 | 45.17066 | 76.07445 | 37074 ft | 464 kts | 158° |
| 2026-05-06 18:08 | 45.11017 | 76.10848 | 37075 ft | 464 kts | 158° |
| 2026-05-06 18:08 | 45.05052 | 76.14201 | 37067 ft | 463 kts | 158° |
| 2026-05-06 18:09 | 44.99018 | 76.17579 | 37069 ft | 461 kts | 158° |
| 2026-05-06 18:09 | 44.96035 | 76.19246 | 36764 ft | 454 kts | 158° |
| 2026-05-06 18:09 | 44.93133 | 76.20867 | 35711 ft | 456 kts | 158° |
| 2026-05-06 18:10 | 44.90147 | 76.22533 | 34337 ft | 466 kts | 157° |
| 2026-05-06 18:10 | 44.87167 | 76.24195 | 32820 ft | 472 kts | 158° |
| 2026-05-06 18:10 | 44.84073 | 76.25922 | 31846 ft | 472 kts | 158° |
| 2026-05-06 18:10 | 44.81059 | 76.27599 | 31214 ft | 469 kts | 158° |
| 2026-05-06 18:11 | 44.77992 | 76.29303 | 30524 ft | 468 kts | 158° |
| 2026-05-06 18:11 | 44.74969 | 76.30981 | 29898 ft | 465 kts | 158° |
| 2026-05-06 18:11 | 44.71966 | 76.32645 | 29444 ft | 459 kts | 158° |
| 2026-05-06 18:11 | 44.69009 | 76.34280 | 28978 ft | 453 kts | 158° |
| 2026-05-06 18:12 | 44.66092 | 76.35894 | 28503 ft | 448 kts | 158° |
| 2026-05-06 18:12 | 44.63198 | 76.37493 | 28039 ft | 444 kts | 158° |
| 2026-05-06 18:12 | 44.60322 | 76.39079 | 27569 ft | 439 kts | 158° |
| 2026-05-06 18:12 | 44.57518 | 76.40625 | 27114 ft | 435 kts | 158° |
| 2026-05-06 18:13 | 44.54678 | 76.42189 | 26645 ft | 431 kts | 159° |
| 2026-05-06 18:13 | 44.51902 | 76.43716 | 26182 ft | 427 kts | 159° |
| 2026-05-06 18:13 | 44.49160 | 76.45223 | 25729 ft | 423 kts | 159° |
| 2026-05-06 18:13 | 44.46441 | 76.46714 | 25274 ft | 419 kts | 159° |
| 2026-05-06 18:14 | 44.43740 | 76.48194 | 24812 ft | 416 kts | 159° |
| 2026-05-06 18:14 | 44.41058 | 76.49664 | 24338 ft | 412 kts | 159° |
| 2026-05-06 18:14 | 44.38406 | 76.51115 | 23878 ft | 409 kts | 159° |
| 2026-05-06 18:14 | 44.35795 | 76.52615 | 23422 ft | 406 kts | 155° |
| 2026-05-06 18:15 | 44.33312 | 76.54447 | 22956 ft | 403 kts | 149° |
| 2026-05-06 18:15 | 44.31010 | 76.56611 | 22462 ft | 401 kts | 144° |
| 2026-05-06 18:15 | 44.28765 | 76.58961 | 21965 ft | 398 kts | 143° |
| 2026-05-06 18:15 | 44.26576 | 76.61287 | 21476 ft | 395 kts | 143° |
| 2026-05-06 18:16 | 44.24406 | 76.63587 | 20992 ft | 392 kts | 143° |
| 2026-05-06 18:16 | 44.22237 | 76.65874 | 20521 ft | 389 kts | 144° |
| 2026-05-06 18:16 | 44.20060 | 76.68162 | 20042 ft | 386 kts | 144° |
| 2026-05-06 18:16 | 44.17903 | 76.70419 | 19554 ft | 384 kts | 144° |
| 2026-05-06 18:17 | 44.15776 | 76.72642 | 19072 ft | 381 kts | 144° |
| 2026-05-06 18:17 | 44.13659 | 76.74854 | 18594 ft | 378 kts | 145° |
| 2026-05-06 18:17 | 44.11753 | 76.76846 | 18218 ft | 374 kts | 145° |
| 2026-05-06 18:18 | 44.09705 | 76.78984 | 17806 ft | 371 kts | 145° |
| 2026-05-06 18:18 | 44.07654 | 76.81119 | 17378 ft | 367 kts | 145° |
| 2026-05-06 18:18 | 44.05600 | 76.83257 | 16952 ft | 364 kts | 145° |
| 2026-05-06 18:18 | 44.03583 | 76.85353 | 16515 ft | 361 kts | 145° |
| 2026-05-06 18:19 | 44.01594 | 76.87418 | 16084 ft | 359 kts | 145° |
| 2026-05-06 18:19 | 43.99586 | 76.89501 | 15636 ft | 357 kts | 145° |
| 2026-05-06 18:19 | 43.97616 | 76.91544 | 15194 ft | 354 kts | 145° |
| 2026-05-06 18:19 | 43.95652 | 76.93578 | 14772 ft | 351 kts | 145° |
| 2026-05-06 18:20 | 43.93702 | 76.95596 | 14342 ft | 348 kts | 145° |
| 2026-05-06 18:20 | 43.91792 | 76.97574 | 13950 ft | 345 kts | 145° |
| 2026-05-06 18:20 | 43.89872 | 76.99559 | 13541 ft | 343 kts | 145° |
| 2026-05-06 18:20 | 43.87983 | 77.01510 | 13093 ft | 341 kts | 145° |
| 2026-05-06 18:21 | 43.86077 | 77.03476 | 12676 ft | 338 kts | 145° |
| 2026-05-06 18:21 | 43.84209 | 77.05401 | 12284 ft | 335 kts | 145° |
| 2026-05-06 18:21 | 43.82440 | 77.07224 | 11880 ft | 333 kts | 145° |
| 2026-05-06 18:21 | 43.80583 | 77.09135 | 11454 ft | 331 kts | 145° |
| 2026-05-06 18:22 | 43.78727 | 77.11043 | 11053 ft | 328 kts | 144° |
| 2026-05-06 18:22 | 43.76897 | 77.12924 | 10661 ft | 325 kts | 144° |
| 2026-05-06 18:22 | 43.75100 | 77.14770 | 10230 ft | 323 kts | 144° |
| 2026-05-06 18:22 | 43.73300 | 77.16618 | 9983 ft | 314 kts | 144° |
| 2026-05-06 18:23 | 43.71603 | 77.18362 | 9983 ft | 297 kts | 144° |
| 2026-05-06 18:23 | 43.69979 | 77.20029 | 9814 ft | 287 kts | 144° |
| 2026-05-06 18:23 | 43.68384 | 77.21661 | 9456 ft | 285 kts | 144° |
| 2026-05-06 18:23 | 43.66783 | 77.23296 | 9114 ft | 282 kts | 144° |
| 2026-05-06 18:24 | 43.65216 | 77.24897 | 8801 ft | 280 kts | 144° |
| 2026-05-06 18:24 | 43.63649 | 77.26498 | 8436 ft | 280 kts | 143° |
| 2026-05-06 18:24 | 43.62088 | 77.28091 | 8099 ft | 278 kts | 143° |
| 2026-05-06 18:24 | 43.60556 | 77.29656 | 8019 ft | 266 kts | 143° |
| 2026-05-06 18:25 | 43.59105 | 77.31109 | 8014 ft | 252 kts | 145° |
| 2026-05-06 18:25 | 43.57659 | 77.32481 | 7664 ft | 253 kts | 145° |
| 2026-05-06 18:25 | 43.56206 | 77.33850 | 7324 ft | 252 kts | 145° |
| 2026-05-06 18:25 | 43.54771 | 77.35201 | 7041 ft | 250 kts | 144° |
| 2026-05-06 18:26 | 43.53212 | 77.36264 | 6729 ft | 250 kts | 170° |
| 2026-05-06 18:26 | 43.51526 | 77.35965 | 6458 ft | 249 kts | 205° |
| 2026-05-06 18:26 | 43.50229 | 77.34428 | 6206 ft | 247 kts | 235° |
| 2026-05-06 18:26 | 43.49311 | 77.32421 | 5932 ft | 245 kts | 237° |
| 2026-05-06 18:27 | 43.48412 | 77.30479 | 5697 ft | 242 kts | 235° |
| 2026-05-06 18:27 | 43.47466 | 77.28580 | 5477 ft | 238 kts | 234° |
| 2026-05-06 18:27 | 43.46530 | 77.26729 | 5389 ft | 228 kts | 234° |
| 2026-05-06 18:27 | 43.45649 | 77.24975 | 5276 ft | 219 kts | 234° |
| 2026-05-06 18:28 | 43.44782 | 77.23239 | 5041 ft | 217 kts | 235° |
| 2026-05-06 18:28 | 43.43943 | 77.21551 | 4846 ft | 209 kts | 235° |
| 2026-05-06 18:28 | 43.43132 | 77.19915 | 4559 ft | 207 kts | 235° |
| 2026-05-06 18:28 | 43.42331 | 77.18299 | 4274 ft | 200 kts | 235° |
| 2026-05-06 18:29 | 43.41568 | 77.16760 | 3997 ft | 188 kts | 235° |
| 2026-05-06 18:29 | 43.40855 | 77.15323 | 3774 ft | 175 kts | 234° |
| 2026-05-06 18:29 | 43.40190 | 77.13982 | 3545 ft | 164 kts | 234° |
| 2026-05-06 18:29 | 43.39571 | 77.12732 | 3333 ft | 151 kts | 234° |
| 2026-05-06 18:30 | 43.38988 | 77.11556 | 3150 ft | 147 kts | 234° |
| 2026-05-06 18:30 | 43.38417 | 77.10407 | 2979 ft | 146 kts | 233° |
| 2026-05-06 18:30 | 43.37838 | 77.09249 | 2787 ft | 145 kts | 233° |
| 2026-05-06 18:30 | 43.37273 | 77.08106 | 2577 ft | 143 kts | 234° |
| 2026-05-06 18:31 | 43.36714 | 77.06973 | 2405 ft | 143 kts | 234° |
| 2026-05-06 18:31 | 43.36155 | 77.05847 | 2259 ft | 138 kts | 234° |
| 2026-05-06 18:31 | 43.35683 | 77.04897 | 2245 ft | 96 kts | 237° |
| 2026-05-06 18:31 | 43.35397 | 77.04314 | 2243 ft | 62 kts | 235° |
| 2026-05-06 18:32 | 43.35162 | 77.03845 | 2239 ft | 56 kts | 235° |
| 2026-05-06 18:32 | 43.34951 | 77.03419 | 2235 ft | 51 kts | 236° |
| 2026-05-06 18:32 | 43.34818 | 77.03116 | 2233 ft | 26 kts | 249° |
| 2026-05-06 18:32 | 43.34783 | 77.02877 | 2233 ft | 24 kts | 265° |
| 2026-05-06 18:33 | 43.34774 | 77.02647 | 2233 ft | 23 kts | 267° |
| 2026-05-06 18:33 | 43.34775 | 77.02425 | 2232 ft | 23 kts | 274° |
| 2026-05-06 18:33 | 43.34787 | 77.02201 | 2227 ft | 24 kts | 273° |
| 2026-05-06 18:33 | 43.34796 | 77.01986 | 2227 ft | 19 kts | 273° |
| 2026-05-06 18:34 | 43.34804 | 77.01803 | 2227 ft | 19 kts | 273° |
| 2026-05-06 18:34 | 43.34813 | 77.01623 | 2228 ft | 18 kts | 274° |
| 2026-05-06 18:34 | 43.34816 | 77.01496 | 2228 ft | 10 kts | 256° |
| 2026-05-06 18:34 | 43.34782 | 77.01404 | 2227 ft | 11 kts | 229° |
| 2026-05-06 18:35 | 43.34744 | 77.01328 | 2228 ft | 8 kts | 244° |
| 2026-05-06 18:35 | 43.34733 | 77.01295 | 2228 ft | 2 kts | 245° |
| 2026-05-06 18:35 | 43.34730 | 77.01284 | 2229 ft | 0 kts | 245° |
| 2026-05-06 18:36 | 43.34729 | 77.01280 | 2229 ft | 0 kts | 245° |